Time;durP1;ratioP1;P1;durP2;ratioP2;P2;SDS_P1;SDS_P2;PMS_P1;PMS_P2;Temp;Humidity;BMP_temperature;BMP_pressure;BME280_temperature;BME280_humidity;BME280_pressure;Samples;Min_cycle;Max_cycle;Signal;HPM_P1;HPM_P2
2022/06/17 00:01:38;;;;;;;4.80;1.17;;;14.80;99.90;;;;;;5062548;28;20040;-82
2022/06/17 00:04:05;;;;;;;1.02;1.00;;;14.70;99.90;;;;;;5065817;28;20048;-82
2022/06/17 00:06:46;;;;;;;5.35;1.42;;;14.70;99.90;;;;;;5072110;28;20028;-82
2022/06/17 00:09:15;;;;;;;3.33;1.73;;;14.60;99.90;;;;;;5073383;28;20024;-82
2022/06/17 00:11:40;;;;;;;2.67;1.00;;;14.60;99.90;;;;;;5073490;28;20103;-82
2022/06/17 00:14:20;;;;;;;4.15;1.60;;;14.60;99.90;;;;;;5072624;28;20532;-82
2022/06/17 00:16:46;;;;;;;3.80;1.58;;;14.50;99.90;;;;;;5071285;28;20024;-82
2022/06/17 00:19:13;;;;;;;1.92;1.40;;;14.50;99.90;;;;;;5071191;28;20036;-82
2022/06/17 00:21:43;;;;;;;4.57;1.70;;;14.50;99.90;;;;;;5068463;28;20025;-82
2022/06/17 00:24:14;;;;;;;3.83;1.52;;;14.40;99.90;;;;;;5067636;28;20031;-81
2022/06/17 00:26:46;;;;;;;4.43;1.60;;;14.40;99.90;;;;;;5057375;28;20098;-82
2022/06/17 00:29:16;;;;;;;2.78;1.33;;;14.40;99.90;;;;;;5059025;28;20029;-82
2022/06/17 00:31:42;;;;;;;5.57;1.70;;;14.30;99.90;;;;;;5072522;28;20044;-82
2022/06/17 00:34:11;;;;;;;3.65;1.52;;;14.30;99.90;;;;;;5065236;28;20573;-82
2022/06/17 00:36:37;;;;;;;3.17;1.52;;;14.20;99.90;;;;;;5071861;28;20032;-81
2022/06/17 00:39:09;;;;;;;6.90;2.50;;;14.20;99.90;;;;;;5071498;28;20025;-82
2022/06/17 00:41:52;;;;;;;3.58;1.52;;;14.10;99.90;;;;;;5056283;28;20365;-81
2022/06/17 00:44:34;;;;;;;6.15;1.58;;;14.10;99.90;;;;;;5067193;28;20025;-78
2022/06/17 00:47:01;;;;;;;2.72;1.40;;;14.10;99.90;;;;;;5068575;28;20113;-78
2022/06/17 00:49:42;;;;;;;2.67;1.50;;;14.00;99.90;;;;;;5071058;28;20048;-78
2022/06/17 00:52:58;;;;;;;4.38;1.48;;;13.90;99.90;;;;;;5070701;28;20028;-78
2022/06/17 00:55:29;;;;;;;3.70;1.48;;;13.90;99.90;;;;;;5036787;28;20098;-78
2022/06/17 00:57:56;;;;;;;4.63;1.52;;;13.90;99.90;;;;;;5069045;28;20099;-78
2022/06/17 01:00:25;;;;;;;6.18;1.92;;;13.80;99.90;;;;;;5072071;28;20031;-78
2022/06/17 01:02:53;;;;;;;2.40;1.20;;;13.80;99.90;;;;;;5067775;28;20021;-78
2022/06/17 01:05:25;;;;;;;6.32;1.50;;;13.80;99.90;;;;;;5068902;28;20491;-78
2022/06/17 01:08:12;;;;;;;5.50;1.73;;;13.70;99.90;;;;;;5070381;28;20102;-78
2022/06/17 01:10:45;;;;;;;3.60;1.45;;;13.70;99.90;;;;;;5052646;28;20052;-78
2022/06/17 01:13:11;;;;;;;2.17;1.30;;;13.60;99.90;;;;;;5064347;28;20028;-78
2022/06/17 01:15:39;;;;;;;1.58;1.20;;;13.60;99.90;;;;;;5071345;28;20040;-78
2022/06/17 01:18:05;;;;;;;3.28;1.23;;;13.60;99.90;;;;;;5071196;28;20479;-78
2022/06/17 01:20:32;;;;;;;3.22;1.70;;;13.50;99.90;;;;;;5071375;28;20060;-78
2022/06/17 01:23:04;;;;;;;2.50;1.27;;;13.50;99.90;;;;;;5069816;28;20025;-78
2022/06/17 01:25:36;;;;;;;4.43;1.52;;;13.50;99.90;;;;;;5071205;28;20043;-78
2022/06/17 01:28:10;;;;;;;3.28;2.10;;;13.50;99.90;;;;;;5069929;28;20028;-78
2022/06/17 01:30:40;;;;;;;4.13;1.20;;;13.50;99.90;;;;;;5070717;28;20425;-78
2022/06/17 01:33:29;;;;;;;2.63;1.50;;;13.40;99.90;;;;;;5072023;28;20021;-78
2022/06/17 01:36:10;;;;;;;4.88;1.75;;;13.40;99.90;;;;;;5064699;28;20473;-78
2022/06/17 01:38:38;;;;;;;3.97;1.98;;;13.40;99.90;;;;;;5050557;28;20522;-78
2022/06/17 01:41:04;;;;;;;3.15;1.40;;;13.40;99.90;;;;;;5050726;28;20338;-78
2022/06/17 01:43:38;;;;;;;1.25;1.15;;;13.40;99.90;;;;;;5051523;28;20041;-77
2022/06/17 01:46:09;;;;;;;1.90;1.33;;;13.40;99.90;;;;;;5067115;28;20025;-78
2022/06/17 01:48:41;;;;;;;1.88;1.45;;;13.30;99.90;;;;;;5072027;28;20021;-78
2022/06/17 01:51:09;;;;;;;5.43;2.08;;;13.30;99.90;;;;;;5072384;28;20027;-78
2022/06/17 01:53:38;;;;;;;2.05;1.60;;;13.30;99.90;;;;;;5071828;28;20488;-77
2022/06/17 01:56:12;;;;;;;1.88;1.30;;;13.30;99.90;;;;;;5070586;28;20025;-78
2022/06/17 01:58:47;;;;;;;5.60;1.75;;;13.30;99.90;;;;;;5071129;28;20039;-78
2022/06/17 02:01:14;;;;;;;2.15;1.23;;;13.30;99.90;;;;;;5065436;28;20484;-77
2022/06/17 02:03:58;;;;;;;2.35;1.52;;;13.20;99.90;;;;;;5066760;28;20041;-78
2022/06/17 02:06:48;;;;;;;2.38;1.23;;;13.10;99.90;;;;;;5062357;28;20033;-78
2022/06/17 02:09:14;;;;;;;2.78;1.65;;;13.10;99.90;;;;;;5061583;28;20028;-77
2022/06/17 02:11:40;;;;;;;2.63;1.60;;;13.00;99.90;;;;;;5072478;28;20028;-78
2022/06/17 02:14:09;;;;;;;2.22;1.30;;;13.00;99.90;;;;;;5073977;28;20082;-77
2022/06/17 02:16:43;;;;;;;2.60;1.30;;;12.90;99.90;;;;;;5071109;28;20362;-78
2022/06/17 02:19:10;;;;;;;1.50;1.30;;;12.90;99.90;;;;;;5055258;28;20033;-78
2022/06/17 02:21:46;;;;;;;3.80;1.35;;;12.90;99.90;;;;;;5055671;28;20027;-78
2022/06/17 02:24:13;;;;;;;2.97;1.38;;;12.90;99.90;;;;;;5054892;28;20481;-77
2022/06/17 02:26:41;;;;;;;2.15;1.40;;;12.90;99.90;;;;;;5055221;28;20048;-78
2022/06/17 02:29:09;;;;;;;2.15;1.60;;;12.80;99.90;;;;;;5054928;28;20028;-78
2022/06/17 02:31:37;;;;;;;3.10;1.60;;;12.80;99.90;;;;;;5058580;28;20031;-78
2022/06/17 02:34:05;;;;;;;2.97;1.77;;;12.80;99.90;;;;;;5074870;28;20024;-78
2022/06/17 02:36:56;;;;;;;2.85;1.50;;;12.70;99.90;;;;;;5074630;28;20128;-78
2022/06/17 02:39:22;;;;;;;4.22;1.90;;;12.60;99.90;;;;;;5075032;28;20427;-77
2022/06/17 02:41:49;;;;;;;4.13;1.50;;;12.60;99.90;;;;;;5075235;28;20020;-79
2022/06/17 02:44:33;;;;;;;1.80;1.38;;;12.50;99.90;;;;;;5074254;28;20466;-79
2022/06/17 02:47:01;;;;;;;4.20;1.52;;;12.40;99.90;;;;;;5064276;28;20477;-77
2022/06/17 02:49:30;;;;;;;3.95;2.05;;;12.40;99.90;;;;;;5054970;28;20096;-78
2022/06/17 02:51:59;;;;;;;5.15;2.33;;;12.40;99.90;;;;;;5055406;28;20024;-77
2022/06/17 02:54:35;;;;;;;5.25;1.40;;;12.40;99.90;;;;;;5069778;28;20035;-77
2022/06/17 02:57:02;;;;;;;3.03;1.63;;;12.30;99.90;;;;;;5062606;28;20078;-78
2022/06/17 03:00:11;;;;;;;4.65;2.05;;;12.20;99.90;;;;;;5073490;28;20032;-78
2022/06/17 03:02:42;;;;;;;4.32;2.05;;;12.20;99.90;;;;;;5069546;28;20058;-78
2022/06/17 03:05:23;;;;;;;6.25;2.08;;;12.10;99.90;;;;;;5069442;28;20047;-77
2022/06/17 03:07:50;;;;;;;4.00;1.92;;;12.10;99.90;;;;;;5063902;28;20027;-78
2022/06/17 03:10:19;;;;;;;4.63;1.90;;;12.10;99.90;;;;;;5071210;28;20032;-77
2022/06/17 03:12:49;;;;;;;6.22;2.40;;;12.10;99.90;;;;;;5067848;28;20423;-77
2022/06/17 03:15:17;;;;;;;5.85;2.38;;;12.10;99.90;;;;;;5073639;28;20036;-77
2022/06/17 03:17:44;;;;;;;3.05;1.73;;;12.00;99.90;;;;;;5070068;28;20111;-77
2022/06/17 03:20:17;;;;;;;2.92;1.83;;;12.00;99.90;;;;;;5054232;28;20104;-77
2022/06/17 03:22:46;;;;;;;7.03;1.60;;;12.00;99.90;;;;;;5054282;28;20480;-77
2022/06/17 03:25:23;;;;;;;4.78;1.63;;;12.00;99.90;;;;;;5068617;28;20028;-77
2022/06/17 03:28:01;;;;;;;3.60;2.03;;;12.00;99.90;;;;;;5073464;28;20056;-77
2022/06/17 03:30:33;;;;;;;3.65;2.10;;;12.00;99.90;;;;;;5067695;28;20025;-77
2022/06/17 03:33:09;;;;;;;6.07;1.75;;;11.90;99.90;;;;;;5072583;28;20032;-77
2022/06/17 03:35:36;;;;;;;4.72;2.35;;;12.00;99.90;;;;;;5070673;28;20392;-77
2022/06/17 03:38:22;;;;;;;3.63;1.80;;;11.90;99.90;;;;;;5069268;28;20039;-77
2022/06/17 03:40:54;;;;;;;3.45;2.17;;;12.00;99.90;;;;;;5071916;28;20547;-77
2022/06/17 03:43:31;;;;;;;12.27;2.55;;;12.00;99.90;;;;;;5072051;28;20059;-77
2022/06/17 03:46:04;;;;;;;3.63;2.13;;;12.00;99.90;;;;;;5059084;28;20068;-77
2022/06/17 03:48:54;;;;;;;4.20;1.80;;;12.00;99.90;;;;;;5072819;28;20036;-77
2022/06/17 03:51:22;;;;;;;4.30;2.03;;;12.00;99.90;;;;;;5065622;28;20056;-77
2022/06/17 03:53:50;;;;;;;5.53;2.20;;;12.10;99.90;;;;;;5072177;28;20035;-77
2022/06/17 03:56:24;;;;;;;4.80;2.17;;;12.10;99.90;;;;;;5068979;28;20048;-77
2022/06/17 03:58:52;;;;;;;8.60;2.40;;;12.10;99.90;;;;;;5070464;28;20465;-77
2022/06/17 04:01:39;;;;;;;3.88;1.77;;;12.20;99.90;;;;;;5071309;28;20056;-77
2022/06/17 04:04:17;;;;;;;14.52;2.40;;;12.30;99.90;;;;;;5068015;28;20048;-77
2022/06/17 04:06:44;;;;;;;4.50;1.85;;;12.30;99.90;;;;;;5062036;28;20024;-77
2022/06/17 04:09:20;;;;;;;5.45;2.25;;;12.40;99.90;;;;;;5069393;28;20039;-77
2022/06/17 04:11:50;;;;;;;5.07;1.95;;;12.50;99.90;;;;;;5072054;28;20115;-78
2022/06/17 04:14:20;;;;;;;7.00;2.42;;;12.50;99.90;;;;;;5066423;28;20481;-77
2022/06/17 04:17:10;;;;;;;4.18;2.35;;;12.60;99.90;;;;;;5056250;28;20025;-77
2022/06/17 04:19:35;;;;;;;3.55;2.22;;;12.60;99.90;;;;;;5067222;28;20339;-77
2022/06/17 04:22:35;;;;;;;5.05;2.47;;;12.60;99.90;;;;;;5071343;28;20029;-77
2022/06/17 04:25:05;;;;;;;6.15;2.72;;;12.80;99.90;;;;;;5048597;28;20630;-77
2022/06/17 04:27:56;;;;;;;12.55;2.47;;;12.80;99.90;;;;;;5065926;28;20056;-77
2022/06/17 04:30:24;;;;;;;5.40;3.00;;;12.90;99.90;;;;;;5065627;28;20024;-78
2022/06/17 04:32:54;;;;;;;6.47;2.95;;;13.00;99.90;;;;;;5074110;28;20072;-77
2022/06/17 04:35:20;;;;;;;9.05;3.30;;;13.10;99.90;;;;;;5058352;28;20029;-77
2022/06/17 04:37:46;;;;;;;6.93;3.13;;;13.20;99.90;;;;;;5067131;28;20027;-77
2022/06/17 04:40:37;;;;;;;18.42;3.53;;;13.40;99.90;;;;;;5054846;28;20159;-77
2022/06/17 04:43:07;;;;;;;10.93;3.35;;;13.60;99.90;;;;;;5058740;28;20032;-77
2022/06/17 04:45:33;;;;;;;11.38;2.90;;;13.70;99.90;;;;;;5057749;28;20035;-77
2022/06/17 04:47:59;;;;;;;14.75;3.70;;;13.90;99.90;;;;;;5063448;28;20028;-77
2022/06/17 04:50:27;;;;;;;4.78;2.92;;;14.00;99.90;;;;;;5061243;28;20036;-77
2022/06/17 04:52:55;;;;;;;8.98;3.10;;;14.20;99.90;;;;;;5066021;28;20021;-78
2022/06/17 04:55:28;;;;;;;5.15;2.67;;;14.40;99.90;;;;;;5066102;28;20031;-77
2022/06/17 04:57:55;;;;;;;12.48;3.65;;;14.50;99.90;;;;;;5065654;28;20025;-77
2022/06/17 05:00:24;;;;;;;11.20;3.50;;;14.70;99.90;;;;;;5068836;28;20383;-78
2022/06/17 05:02:50;;;;;;;7.65;2.75;;;14.80;99.90;;;;;;5067754;28;20024;-78
2022/06/17 05:05:24;;;;;;;10.05;3.40;;;14.90;99.90;;;;;;5062167;28;20390;-77
2022/06/17 05:07:53;;;;;;;5.90;2.00;;;15.00;99.90;;;;;;5066397;28;20392;-78
2022/06/17 05:10:24;;;;;;;6.90;2.65;;;15.10;99.90;;;;;;5071980;28;20119;-78
2022/06/17 05:13:00;;;;;;;12.02;3.45;;;15.10;99.90;;;;;;5068548;28;20025;-78
2022/06/17 05:15:27;;;;;;;5.95;2.55;;;15.30;99.90;;;;;;5069830;28;20028;-78
2022/06/17 05:17:54;;;;;;;6.70;3.05;;;15.30;99.90;;;;;;5085463;28;20033;-79
2022/06/17 05:20:23;;;;;;;10.23;2.83;;;15.30;99.90;;;;;;5070081;28;20024;-78
2022/06/17 05:22:54;;;;;;;10.07;3.00;;;15.30;99.90;;;;;;5069456;28;20078;-78
2022/06/17 05:25:25;;;;;;;8.60;3.33;;;15.40;99.90;;;;;;5069575;28;20033;-78
2022/06/17 05:27:51;;;;;;;13.15;3.33;;;15.50;99.90;;;;;;5072532;28;20029;-78
2022/06/17 05:30:17;;;;;;;8.15;3.15;;;15.50;99.90;;;;;;5071461;28;20035;-78
2022/06/17 05:32:46;;;;;;;10.05;4.03;;;15.60;99.90;;;;;;5072078;28;20021;-78
2022/06/17 05:35:12;;;;;;;13.27;3.90;;;15.70;99.90;;;;;;5071739;28;20397;-79
2022/06/17 05:37:38;;;;;;;10.88;4.03;;;15.80;99.90;;;;;;5070362;28;20028;-78
2022/06/17 05:40:05;;;;;;;6.03;3.42;;;15.90;99.90;;;;;;5071473;28;20527;-78
2022/06/17 05:42:31;;;;;;;10.30;3.67;;;16.00;99.90;;;;;;5071764;28;20032;-78
2022/06/17 05:44:57;;;;;;;15.23;4.53;;;16.00;99.90;;;;;;5071113;28;20574;-79
2022/06/17 05:47:22;;;;;;;15.95;5.18;;;16.00;99.90;;;;;;5074639;28;20029;-78
2022/06/17 05:49:48;;;;;;;6.97;3.25;;;16.10;99.90;;;;;;5075529;28;20032;-79
2022/06/17 05:52:14;;;;;;;13.05;4.78;;;16.10;99.90;;;;;;5075404;28;20016;-79
2022/06/17 05:54:40;;;;;;;10.77;4.00;;;16.10;99.90;;;;;;5075296;28;20108;-79
2022/06/17 05:57:06;;;;;;;11.05;3.42;;;16.20;99.90;;;;;;5075205;28;20107;-78
2022/06/17 05:59:32;;;;;;;11.10;3.53;;;16.20;99.90;;;;;;5074835;28;20388;-78
2022/06/17 06:01:58;;;;;;;10.43;3.17;;;16.20;99.90;;;;;;5075126;28;20037;-78
2022/06/17 06:04:26;;;;;;;10.80;3.30;;;16.30;99.90;;;;;;5074730;28;20040;-79
2022/06/17 06:06:52;;;;;;;14.32;3.15;;;16.30;99.90;;;;;;5073998;28;20441;-79
2022/06/17 06:09:18;;;;;;;10.05;3.28;;;16.40;99.90;;;;;;5074957;28;20067;-78
2022/06/17 06:11:43;;;;;;;8.38;3.17;;;16.40;99.90;;;;;;5073760;28;20028;-78
2022/06/17 06:14:09;;;;;;;8.57;2.95;;;16.50;99.90;;;;;;5074622;28;20024;-79
2022/06/17 06:16:38;;;;;;;11.70;3.47;;;16.50;99.90;;;;;;5074962;28;20499;-79
2022/06/17 06:19:04;;;;;;;7.30;3.05;;;16.60;99.90;;;;;;5075073;28;20035;-78
2022/06/17 06:21:30;;;;;;;12.75;3.03;;;16.70;99.90;;;;;;5073634;28;20063;-78
2022/06/17 06:23:56;;;;;;;7.50;3.03;;;16.80;99.90;;;;;;5074760;28;20448;-79
2022/06/17 06:26:23;;;;;;;10.95;2.95;;;16.90;99.90;;;;;;5073523;28;20384;-79
2022/06/17 06:28:49;;;;;;;10.52;3.22;;;16.90;99.90;;;;;;5074588;28;20017;-78
2022/06/17 06:31:33;;;;;;;14.48;3.30;;;17.00;99.90;;;;;;5074904;28;20099;-78
2022/06/17 06:33:59;;;;;;;10.35;3.03;;;17.00;99.90;;;;;;5074240;28;20039;-79
2022/06/17 06:36:25;;;;;;;9.10;2.75;;;17.10;99.90;;;;;;5074833;28;20477;-79
2022/06/17 06:38:51;;;;;;;10.93;2.80;;;17.20;99.90;;;;;;5074434;28;20031;-79
2022/06/17 06:41:17;;;;;;;4.80;2.33;;;17.20;99.90;;;;;;5073393;28;20118;-79
2022/06/17 06:43:44;;;;;;;6.20;2.03;;;17.20;99.90;;;;;;5073843;28;20498;-79
2022/06/17 06:46:12;;;;;;;7.80;2.38;;;17.30;99.90;;;;;;5074665;28;20028;-79
2022/06/17 06:48:38;;;;;;;4.88;2.13;;;17.30;99.90;;;;;;5074507;28;20022;-78
2022/06/17 06:51:04;;;;;;;5.03;2.00;;;17.30;99.90;;;;;;5073356;28;20013;-79
2022/06/17 06:53:30;;;;;;;6.40;1.35;;;17.40;99.90;;;;;;5074361;28;20025;-79
2022/06/17 06:55:56;;;;;;;5.25;1.83;;;17.50;99.90;;;;;;5074571;28;20031;-79
2022/06/17 06:58:24;;;;;;;2.75;1.80;;;17.60;99.90;;;;;;5072309;28;20070;-79
2022/06/17 07:00:53;;;;;;;5.85;2.17;;;17.60;99.90;;;;;;5074485;28;20491;-80
2022/06/17 07:03:20;;;;;;;7.00;3.92;;;17.70;99.90;;;;;;5073953;28;20020;-79
2022/06/17 07:05:48;;;;;;;5.40;3.08;;;17.70;99.90;;;;;;5074343;28;20086;-79
2022/06/17 07:08:16;;;;;;;5.18;2.05;;;17.70;99.90;;;;;;5074157;28;20033;-79
2022/06/17 07:10:44;;;;;;;4.97;1.92;;;17.80;99.90;;;;;;5074306;28;20411;-79
2022/06/17 07:13:10;;;;;;;7.05;2.20;;;17.90;99.90;;;;;;5073905;28;20090;-80
2022/06/17 07:15:37;;;;;;;5.38;1.70;;;18.00;99.90;;;;;;5073925;28;20032;-80
2022/06/17 07:18:11;;;;;;;5.68;2.03;;;18.00;99.90;;;;;;5074127;28;20035;-79
2022/06/17 07:20:42;;;;;;;11.18;2.50;;;18.10;99.90;;;;;;5074195;28;20115;-79
2022/06/17 07:23:35;;;;;;;5.75;2.00;;;18.10;99.90;;;;;;5073867;28;20029;-79
2022/06/17 07:26:07;;;;;;;7.47;2.47;;;18.10;99.90;;;;;;5070845;28;20453;-79
2022/06/17 07:28:33;;;;;;;8.85;2.47;;;18.20;99.90;;;;;;5073478;28;20032;-80
2022/06/17 07:30:59;;;;;;;9.60;2.70;;;18.30;99.90;;;;;;5073627;28;20043;-79
2022/06/17 07:33:27;;;;;;;4.80;2.10;;;18.30;99.90;;;;;;5073562;28;20487;-79
2022/06/17 07:35:57;;;;;;;8.18;2.45;;;18.40;99.90;;;;;;5073762;28;20099;-79
2022/06/17 07:41:13;;;;;;;9.98;2.92;;;18.40;99.90;;;;;;5073817;28;20523;-80
2022/06/17 07:43:39;;;;;;;6.97;2.53;;;18.60;99.90;;;;;;5072933;28;20046;-79
2022/06/17 07:46:05;;;;;;;7.47;2.42;;;18.60;99.90;;;;;;5072316;28;20056;-79
2022/06/17 07:48:31;;;;;;;10.73;2.80;;;18.60;99.90;;;;;;5073303;28;20025;-78
2022/06/17 07:50:58;;;;;;;6.32;2.80;;;18.60;99.90;;;;;;5073404;28;20078;-78
2022/06/17 07:53:29;;;;;;;7.43;2.83;;;18.70;99.90;;;;;;5073155;28;20023;-79
2022/06/17 07:55:56;;;;;;;7.70;2.63;;;18.70;99.90;;;;;;5073319;28;20020;-79
2022/06/17 07:58:22;;;;;;;13.68;2.97;;;18.80;99.90;;;;;;5072832;28;20090;-80
2022/06/17 08:00:48;;;;;;;8.88;2.80;;;18.90;99.90;;;;;;5073261;28;20096;-79
2022/06/17 08:03:15;;;;;;;19.90;3.03;;;18.90;99.90;;;;;;5072928;28;20048;-79
2022/06/17 08:05:44;;;;;;;9.02;2.72;;;18.90;99.90;;;;;;5072696;28;20040;-80
2022/06/17 08:08:10;;;;;;;16.08;3.67;;;19.00;99.90;;;;;;5071511;28;20461;-80
2022/06/17 08:10:37;;;;;;;15.55;3.30;;;19.00;99.90;;;;;;5072538;28;20031;-79
2022/06/17 08:13:07;;;;;;;13.90;2.78;;;19.00;99.90;;;;;;5072593;28;20031;-79
2022/06/17 08:15:34;;;;;;;4.70;2.45;;;19.10;99.90;;;;;;5069309;28;20032;-80
2022/06/17 08:18:01;;;;;;;6.60;2.42;;;19.10;99.90;;;;;;5070598;28;20097;-79
2022/06/17 08:20:35;;;;;;;8.18;2.75;;;19.10;99.90;;;;;;5073214;28;20020;-79
2022/06/17 08:23:03;;;;;;;12.20;2.58;;;19.10;99.90;;;;;;5072889;28;20120;-79
2022/06/17 08:25:33;;;;;;;7.30;2.67;;;19.20;99.90;;;;;;5072592;28;20032;-79
2022/06/17 08:28:03;;;;;;;9.57;3.03;;;19.20;99.90;;;;;;5072214;28;20017;-80
2022/06/17 08:30:31;;;;;;;6.53;2.83;;;19.40;99.90;;;;;;5072689;28;20017;-79
2022/06/17 08:32:59;;;;;;;7.65;2.53;;;19.40;99.90;;;;;;5072571;28;20310;-80
2022/06/17 08:35:32;;;;;;;7.85;2.22;;;19.50;99.90;;;;;;5071354;28;20476;-79
2022/06/17 08:38:07;;;;;;;8.48;2.35;;;19.60;99.90;;;;;;5065513;28;20056;-80
2022/06/17 08:40:59;;;;;;;8.07;2.30;;;19.70;99.90;;;;;;5070107;28;20032;-80
2022/06/17 08:43:44;;;;;;;9.20;2.50;;;19.80;99.90;;;;;;5068807;28;20452;-79
2022/06/17 08:47:08;;;;;;;12.88;2.30;;;19.90;99.90;;;;;;5068419;28;20043;-79
2022/06/17 08:49:51;;;;;;;4.95;1.98;;;19.90;99.90;;;;;;5036627;28;20033;-79
2022/06/17 08:52:44;;;;;;;7.45;2.05;;;19.90;99.90;;;;;;5066678;28;20056;-79
2022/06/17 08:55:31;;;;;;;7.20;1.70;;;20.00;99.90;;;;;;5058388;28;20511;-81
2022/06/17 08:58:15;;;;;;;4.25;1.50;;;20.10;99.80;;;;;;5064140;28;20496;-80
2022/06/17 09:00:50;;;;;;;6.45;2.10;;;20.30;98.40;;;;;;5064732;28;20086;-80
2022/06/17 09:03:15;;;;;;;9.90;1.92;;;20.30;97.00;;;;;;5068893;28;20044;-80
2022/06/17 09:05:41;;;;;;;5.90;1.70;;;20.30;94.50;;;;;;5065726;28;20028;-79
2022/06/17 09:08:33;;;;;;;6.75;1.92;;;20.50;95.10;;;;;;5067062;28;20036;-80
2022/06/17 09:11:17;;;;;;;7.45;1.70;;;20.50;93.90;;;;;;5064411;28;20025;-80
2022/06/17 09:14:14;;;;;;;2.97;1.33;;;20.50;93.40;;;;;;5063563;28;20027;-80
2022/06/17 09:17:31;;;;;;;9.95;1.83;;;20.60;93.00;;;;;;5068083;28;20028;-80
2022/06/17 09:20:01;;;;;;;3.90;1.63;;;20.70;92.10;;;;;;4990688;28;20030;-79
2022/06/17 09:22:32;;;;;;;8.20;1.50;;;20.80;89.20;;;;;;5053968;28;20036;-80
2022/06/17 09:25:07;;;;;;;8.18;1.55;;;20.80;88.20;;;;;;5072290;28;20028;-79
2022/06/17 09:27:36;;;;;;;4.68;1.40;;;20.90;87.60;;;;;;5075580;28;20070;-79
2022/06/17 09:30:17;;;;;;;4.65;1.77;;;20.90;90.40;;;;;;5073265;28;20511;-79
2022/06/17 09:32:46;;;;;;;5.65;1.85;;;21.00;88.50;;;;;;5054453;28;20017;-80
2022/06/17 09:35:22;;;;;;;3.00;1.77;;;21.10;89.90;;;;;;5055848;28;20025;-80
2022/06/17 09:38:00;;;;;;;8.10;1.52;;;21.10;89.40;;;;;;5065633;28;20379;-80
2022/06/17 09:40:37;;;;;;;3.78;1.80;;;21.10;91.10;;;;;;5074979;28;20029;-79
2022/06/17 09:43:29;;;;;;;4.47;1.95;;;21.30;83.70;;;;;;5074116;28;20078;-80
2022/06/17 09:46:25;;;;;;;4.40;1.70;;;21.30;85.90;;;;;;5073978;28;20041;-80
2022/06/17 09:48:59;;;;;;;;;;;21.40;88.10;;;;;;5070458;28;20381;-81
2022/06/17 09:51:33;;;;;;;3.70;1.30;;;21.60;83.60;;;;;;5068891;28;19908;-81
2022/06/17 09:54:06;;;;;;;4.32;1.48;;;21.80;84.30;;;;;;5074291;28;20060;-81
2022/06/17 09:57:04;;;;;;;2.22;1.20;;;21.80;90.00;;;;;;5071883;28;20383;-80
2022/06/17 09:59:36;;;;;;;3.47;1.55;;;21.90;80.00;;;;;;5046969;28;20496;-80
2022/06/17 10:02:13;;;;;;;3.65;1.48;;;22.00;76.10;;;;;;5074431;28;20027;-80
2022/06/17 10:04:39;;;;;;;5.10;1.85;;;22.00;74.20;;;;;;5073672;28;20044;-80
2022/06/17 10:07:20;;;;;;;8.98;1.60;;;22.10;75.10;;;;;;5072647;28;20530;-80
2022/06/17 10:10:32;;;;;;;3.50;1.45;;;22.10;73.50;;;;;;5063670;28;20027;-80
2022/06/17 10:13:34;;;;;;;4.28;1.90;;;22.20;70.20;;;;;;5064825;28;20368;-80
2022/06/17 10:19:43;;;;;;;3.63;1.30;;;22.20;68.50;;;;;;5062534;28;20056;-80
2022/06/17 10:22:15;;;;;;;4.22;2.15;;;22.20;63.70;;;;;;5069559;28;20403;-80
2022/06/17 10:24:59;;;;;;;4.55;1.50;;;22.30;66.30;;;;;;5072720;28;20040;-80
2022/06/17 10:27:42;;;;;;;2.03;1.15;;;22.40;63.00;;;;;;5063495;28;20411;-81
2022/06/17 10:30:16;;;;;;;4.20;1.42;;;22.40;62.20;;;;;;5072405;28;20376;-80
2022/06/17 10:32:46;;;;;;;3.17;1.45;;;22.40;61.60;;;;;;5072108;28;20017;-82
2022/06/17 10:35:33;;;;;;;3.30;1.63;;;22.40;60.30;;;;;;5067449;28;20043;-81
2022/06/17 10:38:03;;;;;;;5.78;1.77;;;22.50;63.00;;;;;;5061679;28;20036;-80
2022/06/17 10:40:31;;;;;;;6.60;1.60;;;22.60;61.30;;;;;;5073724;28;20060;-81
2022/06/17 10:43:04;;;;;;;14.00;1.65;;;22.60;59.00;;;;;;5073771;28;20036;-80
2022/06/17 10:45:30;;;;;;;4.60;1.60;;;22.70;58.70;;;;;;5065326;28;20028;-80
2022/06/17 10:48:03;;;;;;;4.55;1.40;;;22.70;55.50;;;;;;5074414;28;20112;-80
2022/06/17 10:50:31;;;;;;;5.32;1.50;;;22.80;55.60;;;;;;5074898;28;20021;-80
2022/06/17 10:53:01;;;;;;;3.67;1.52;;;22.80;56.90;;;;;;5066588;28;20033;-81
2022/06/17 10:55:42;;;;;;;2.72;1.45;;;22.80;55.80;;;;;;5063266;28;20504;-80
2022/06/17 10:58:27;;;;;;;3.58;1.45;;;22.80;55.00;;;;;;5054081;28;20104;-80
2022/06/17 11:01:02;;;;;;;11.88;1.80;;;22.90;56.20;;;;;;5070453;28;20111;-80
2022/06/17 11:03:37;;;;;;;2.60;1.30;;;23.00;56.40;;;;;;5073513;28;20506;-80
2022/06/17 11:06:14;;;;;;;7.90;1.48;;;23.00;56.40;;;;;;5068928;28;20540;-80
2022/06/17 11:08:49;;;;;;;5.97;1.35;;;23.10;56.10;;;;;;5069478;28;20021;-80
2022/06/17 11:14:04;;;;;;;1.58;1.48;;;23.30;55.40;;;;;;5062687;28;20040;-80
2022/06/17 11:16:40;;;;;;;2.17;1.20;;;23.30;54.60;;;;;;5071145;28;20032;-80
2022/06/17 11:19:11;;;;;;;3.25;1.42;;;23.30;55.30;;;;;;5072916;28;20055;-80
2022/06/17 11:21:44;;;;;;;4.75;1.55;;;23.30;54.30;;;;;;5073524;28;20369;-80
2022/06/17 11:24:33;;;;;;;3.35;1.67;;;23.40;54.90;;;;;;5068968;28;20254;-81
2022/06/17 11:27:22;;;;;;;5.43;1.70;;;23.40;54.10;;;;;;5072769;28;20074;-80
2022/06/17 11:29:50;;;;;;;6.88;1.70;;;23.50;53.30;;;;;;5090412;28;20052;-80
2022/06/17 11:32:19;;;;;;;5.55;2.08;;;23.60;50.90;;;;;;5071626;28;20025;-80
2022/06/17 11:34:53;;;;;;;2.95;1.40;;;23.70;49.90;;;;;;5070382;28;20028;-80
2022/06/17 11:37:24;;;;;;;5.22;1.60;;;23.70;50.20;;;;;;5071792;28;20034;-81
2022/06/17 11:40:13;;;;;;;3.03;1.38;;;23.60;50.80;;;;;;5072675;28;20025;-81
2022/06/17 11:42:50;;;;;;;3.95;1.60;;;23.60;51.60;;;;;;5053081;28;20028;-80
2022/06/17 11:45:39;;;;;;;6.07;1.67;;;23.50;50.80;;;;;;5072149;28;20399;-80
2022/06/17 11:48:20;;;;;;;4.07;1.10;;;23.60;50.30;;;;;;5071684;28;20029;-81
2022/06/17 11:51:06;;;;;;;4.75;2.20;;;23.70;50.90;;;;;;5070265;28;20432;-80
2022/06/17 11:53:40;;;;;;;3.20;1.58;;;23.70;50.90;;;;;;5078699;28;20055;-80
2022/06/17 11:56:07;;;;;;;2.67;1.23;;;23.80;49.60;;;;;;5055495;28;20024;-81
2022/06/17 11:58:33;;;;;;;3.70;1.10;;;23.80;50.20;;;;;;5069189;28;20028;-80
2022/06/17 12:01:13;;;;;;;3.85;1.40;;;23.90;48.80;;;;;;5073259;28;20016;-81
2022/06/17 12:03:44;;;;;;;8.18;1.50;;;23.90;48.80;;;;;;5072767;28;20047;-81
2022/06/17 12:06:23;;;;;;;1.60;1.00;;;23.90;48.90;;;;;;5075295;28;20028;-80
2022/06/17 12:09:01;;;;;;;5.45;1.50;;;23.90;49.30;;;;;;5090946;28;20024;-82
2022/06/17 12:11:36;;;;;;;6.65;2.15;;;24.00;48.90;;;;;;5072843;28;20520;-81
2022/06/17 12:14:05;;;;;;;3.90;1.30;;;24.20;49.70;;;;;;5073165;28;20388;-80
2022/06/17 12:16:43;;;;;;;3.58;1.48;;;24.20;48.40;;;;;;5072552;28;20111;-80
2022/06/17 12:19:15;;;;;;;4.43;1.35;;;24.30;48.30;;;;;;5065485;28;20025;-80
2022/06/17 12:21:57;;;;;;;6.07;2.00;;;24.20;48.60;;;;;;5052541;28;20397;-80
2022/06/17 12:24:46;;;;;;;3.53;1.13;;;24.30;50.10;;;;;;5052603;28;20029;-80
2022/06/17 12:27:32;;;;;;;4.28;1.75;;;24.40;48.70;;;;;;5052896;28;20385;-81
2022/06/17 12:30:28;;;;;;;3.90;1.67;;;24.50;48.00;;;;;;5064891;28;20058;-80
2022/06/17 12:33:15;;;;;;;4.22;1.30;;;24.40;47.50;;;;;;5069651;28;20112;-80
2022/06/17 12:35:47;;;;;;;2.75;1.40;;;24.50;48.20;;;;;;5071133;28;20041;-81
2022/06/17 12:38:38;;;;;;;2.45;1.50;;;24.40;47.80;;;;;;5072386;28;20392;-81
2022/06/17 12:41:20;;;;;;;3.45;1.25;;;24.40;48.10;;;;;;5052426;28;20473;-81
2022/06/17 12:44:11;;;;;;;4.80;1.55;;;24.40;49.80;;;;;;5062069;28;20048;-81
2022/06/17 12:47:04;;;;;;;3.63;1.60;;;24.40;48.40;;;;;;5072225;28;20024;-81
2022/06/17 12:55:42;;;;;;;2.65;1.38;;;24.40;48.60;;;;;;5051934;28;20499;-80
2022/06/17 12:58:46;;;;;;;3.00;1.47;;;24.50;48.00;;;;;;5060141;28;20028;-81
2022/06/17 13:01:18;;;;;;;1.98;1.00;;;24.50;48.20;;;;;;5065768;28;20021;-81
2022/06/17 13:04:02;;;;;;;5.63;1.65;;;24.50;49.40;;;;;;5056535;28;20045;-81
2022/06/17 13:07:03;;;;;;;4.57;1.13;;;24.60;48.40;;;;;;5066260;28;20045;-81
2022/06/17 13:09:52;;;;;;;5.13;1.58;;;24.90;48.20;;;;;;5072311;28;20023;-82
2022/06/17 13:12:33;;;;;;;6.10;1.77;;;24.90;47.10;;;;;;5071818;28;20025;-81
2022/06/17 13:15:05;;;;;;;7.45;1.40;;;25.00;46.70;;;;;;5072299;28;20353;-81
2022/06/17 13:18:02;;;;;;;3.22;1.35;;;25.20;47.00;;;;;;5072109;28;20143;-81
2022/06/17 13:20:41;;;;;;;6.75;1.55;;;25.30;45.70;;;;;;5071737;28;20025;-82
2022/06/17 13:23:34;;;;;;;4.45;1.20;;;25.20;47.10;;;;;;5072001;28;20025;-80
2022/06/17 13:26:15;;;;;;;5.57;1.50;;;25.10;47.50;;;;;;5066609;28;20028;-82
2022/06/17 13:28:56;;;;;;;1.92;1.20;;;25.20;47.70;;;;;;5075488;28;20483;-83
2022/06/17 13:31:42;;;;;;;4.93;1.67;;;25.20;48.30;;;;;;5071404;28;20050;-83
2022/06/17 13:34:33;;;;;;;2.88;1.42;;;25.50;46.30;;;;;;5069225;28;20035;-84
2022/06/17 13:37:18;;;;;;;4.70;1.40;;;25.60;46.30;;;;;;5063894;28;20039;-82